Starksboro, Vermont
Current Conditions -  °F | °C
As of 10:54 PM on Friday 24 Oct 2014 (Local Time) from KBTV Reporting Station
Clear Clear  
Wind Chill:   Ceiling: Unl
Heat Index:   Visibility: 10mi
Dew Point:   Wind: 5mph
Humidity: 89%   Direction: 100°E
Pressure: 29.83"   Gusts: NA
Location:  44.23°N, 73.06°W
Report Text: KBTV 250254Z 10004KT 10SM CLR 05/03 A2983 RMK AO2 SLP103 T00500033 58005
Loading
Personal Weather Stations






























Interactive Weather Map
Tropical Storm Tracking
New forecast layout! Learn more

10-Day Weather Forecast

Advertisements
Track Severe Weather on mobile